Time;durP1;ratioP1;P1;durP2;ratioP2;P2;SDS_P1;SDS_P2;PMS_P1;PMS_P2;Temp;Humidity;BMP_temperature;BMP_pressure;BME280_temperature;BME280_humidity;BME280_pressure;Samples;Min_cycle;Max_cycle;Signal;HPM_P1;HPM_P2
2021/08/27 00:01:31;;;;;;;3.50;0.98;;;13.70;99.90;;;;;;5031927;28;20373;-38
2021/08/27 00:03:56;;;;;;;4.32;1.17;;;13.70;99.90;;;;;;5031301;28;20448;-42
2021/08/27 00:06:22;;;;;;;2.70;0.95;;;13.60;99.90;;;;;;5031031;28;20052;-39
2021/08/27 00:08:47;;;;;;;7.00;1.25;;;13.60;99.90;;;;;;5030447;28;20102;-39
2021/08/27 00:11:14;;;;;;;4.32;1.13;;;13.50;99.90;;;;;;5031590;28;20017;-36
2021/08/27 00:13:43;;;;;;;3.47;1.10;;;13.50;99.90;;;;;;5030250;28;20491;-41
2021/08/27 00:16:15;;;;;;;2.78;0.93;;;13.50;99.90;;;;;;5031362;28;20050;-41
2021/08/27 00:18:41;;;;;;;4.27;1.07;;;13.50;99.90;;;;;;5031524;28;20025;-38
2021/08/27 00:21:16;;;;;;;4.40;1.13;;;13.50;99.90;;;;;;5030637;28;20052;-38
2021/08/27 00:23:41;;;;;;;5.22;1.00;;;13.50;99.90;;;;;;5030587;28;20022;-41
2021/08/27 00:26:07;;;;;;;5.25;1.20;;;13.50;99.90;;;;;;5030295;28;20028;-39
2021/08/27 00:28:32;;;;;;;3.25;0.80;;;13.50;99.90;;;;;;5029875;28;20052;-42
2021/08/27 00:30:58;;;;;;;9.23;1.23;;;13.50;99.90;;;;;;5029332;28;20427;-40
2021/08/27 00:33:26;;;;;;;5.18;1.38;;;13.50;99.90;;;;;;5030484;28;20536;-40
2021/08/27 00:35:52;;;;;;;2.88;0.95;;;13.50;99.90;;;;;;5029192;28;20144;-40
2021/08/27 00:38:19;;;;;;;5.60;0.98;;;13.50;99.90;;;;;;5030325;28;20026;-40
2021/08/27 00:40:44;;;;;;;2.25;0.90;;;13.50;99.90;;;;;;5029117;28;20120;-39
2021/08/27 00:43:13;;;;;;;3.97;1.05;;;13.40;99.90;;;;;;5029561;28;20108;-39
2021/08/27 00:45:41;;;;;;;3.40;0.98;;;13.40;99.90;;;;;;5029819;28;20026;-36
2021/08/27 00:48:10;;;;;;;3.33;1.33;;;13.50;99.90;;;;;;5030866;28;20071;-42
2021/08/27 00:50:36;;;;;;;2.13;0.90;;;13.50;99.90;;;;;;5030802;28;20021;-39
2021/08/27 00:53:05;;;;;;;4.82;1.02;;;13.50;99.90;;;;;;5030575;28;20602;-41
2021/08/27 00:55:31;;;;;;;4.85;1.00;;;13.50;99.90;;;;;;5029269;28;20018;-42
2021/08/27 00:57:57;;;;;;;3.65;1.10;;;13.50;99.90;;;;;;5029252;28;20480;-42
2021/08/27 01:00:23;;;;;;;6.00;0.70;;;13.50;99.90;;;;;;5030441;28;20051;-41
2021/08/27 01:02:49;;;;;;;3.90;0.98;;;13.50;99.90;;;;;;5029655;28;20021;-37
2021/08/27 01:05:19;;;;;;;3.83;0.80;;;13.40;99.90;;;;;;5030178;28;20088;-42
2021/08/27 01:07:57;;;;;;;1.27;0.50;;;13.40;99.90;;;;;;5029646;28;20040;-41
2021/08/27 01:10:32;;;;;;;2.80;0.88;;;13.30;99.90;;;;;;5029947;28;20029;-40
2021/08/27 01:13:12;;;;;;;2.00;0.70;;;13.30;99.90;;;;;;5029879;28;20112;-42
2021/08/27 01:16:12;;;;;;;4.90;1.05;;;13.20;99.90;;;;;;5029582;28;20092;-42
2021/08/27 01:18:51;;;;;;;4.07;0.73;;;13.20;99.90;;;;;;5029899;28;20018;-42
2021/08/27 01:21:39;;;;;;;2.80;0.90;;;13.10;99.90;;;;;;5030160;28;20037;-38
2021/08/27 01:24:07;;;;;;;3.10;1.00;;;13.10;99.90;;;;;;5028942;28;20490;-42
2021/08/27 01:26:37;;;;;;;3.78;1.00;;;13.10;99.90;;;;;;5029616;28;20069;-40
2021/08/27 01:29:23;;;;;;;2.25;0.68;;;13.10;99.90;;;;;;5029857;28;20037;-39
2021/08/27 01:32:00;;;;;;;2.63;1.00;;;13.10;99.90;;;;;;5028920;28;20488;-40
2021/08/27 01:34:43;;;;;;;2.88;1.20;;;13.00;99.90;;;;;;5029716;28;20090;-42
2021/08/27 01:37:15;;;;;;;4.40;1.38;;;13.00;99.90;;;;;;5028667;28;20025;-41
2021/08/27 01:39:54;;;;;;;3.03;1.08;;;13.00;99.90;;;;;;5028993;28;20419;-41
2021/08/27 01:42:23;;;;;;;4.07;1.17;;;12.90;99.90;;;;;;5028868;28;20013;-39
2021/08/27 01:44:51;;;;;;;4.50;1.30;;;12.90;99.90;;;;;;5027934;28;20018;-40
2021/08/27 01:47:20;;;;;;;4.15;0.90;;;12.90;99.90;;;;;;5028019;28;20040;-42
2021/08/27 01:49:48;;;;;;;3.97;1.38;;;12.90;99.90;;;;;;5028410;28;20022;-42
2021/08/27 01:52:15;;;;;;;2.85;0.95;;;12.90;99.90;;;;;;5028050;28;20037;-42
2021/08/27 01:54:41;;;;;;;3.85;1.20;;;12.90;99.90;;;;;;5028726;28;20044;-41
2021/08/27 01:57:09;;;;;;;5.57;1.23;;;12.90;99.90;;;;;;5027939;28;20060;-41
2021/08/27 01:59:45;;;;;;;3.67;1.30;;;12.90;99.90;;;;;;5028699;28;20130;-42
2021/08/27 02:02:13;;;;;;;5.03;1.40;;;12.90;99.90;;;;;;5029703;28;20850;-41
2021/08/27 02:04:42;;;;;;;3.88;1.10;;;12.90;99.90;;;;;;5029332;28;20342;-41
2021/08/27 02:07:09;;;;;;;6.20;1.50;;;12.90;99.90;;;;;;5028129;28;20037;-36
2021/08/27 02:09:36;;;;;;;3.80;1.20;;;13.00;99.90;;;;;;5029353;28;20111;-42
2021/08/27 02:12:03;;;;;;;5.72;1.38;;;13.00;99.90;;;;;;5029044;28;20030;-39
2021/08/27 02:14:30;;;;;;;6.32;1.20;;;13.00;99.90;;;;;;5028349;28;20068;-38
2021/08/27 02:16:58;;;;;;;5.35;1.20;;;13.00;99.90;;;;;;5029965;28;20433;-37
2021/08/27 02:19:27;;;;;;;3.88;1.10;;;13.00;99.90;;;;;;5028650;28;20028;-38
2021/08/27 02:21:55;;;;;;;5.85;1.30;;;13.10;99.90;;;;;;5029072;28;20026;-39
2021/08/27 02:24:25;;;;;;;4.45;1.15;;;13.10;99.90;;;;;;5029371;28;20381;-37
2021/08/27 02:26:52;;;;;;;3.60;1.27;;;13.10;99.90;;;;;;5028522;28;20030;-39
2021/08/27 02:29:23;;;;;;;2.95;1.10;;;13.20;99.90;;;;;;5028984;28;20104;-38
2021/08/27 02:31:54;;;;;;;4.68;1.52;;;13.20;99.90;;;;;;5029037;28;20472;-41
2021/08/27 02:34:21;;;;;;;8.90;1.55;;;13.30;99.90;;;;;;5029008;28;20014;-40
2021/08/27 02:36:53;;;;;;;7.88;1.38;;;13.30;99.90;;;;;;5028557;28;20138;-41
2021/08/27 02:39:21;;;;;;;6.93;2.45;;;13.30;99.90;;;;;;5028584;28;20464;-41
2021/08/27 02:41:51;;;;;;;2.78;1.10;;;13.40;99.90;;;;;;5028434;28;20033;-38
2021/08/27 02:44:16;;;;;;;5.10;1.30;;;13.40;99.90;;;;;;5027962;28;20017;-42
2021/08/27 02:46:43;;;;;;;8.73;1.05;;;13.40;99.90;;;;;;5028532;28;20112;-38
2021/08/27 02:49:09;;;;;;;7.95;1.67;;;13.40;99.90;;;;;;5027202;28;20021;-35
2021/08/27 02:51:52;;;;;;;5.07;1.40;;;13.30;99.90;;;;;;5028151;28;20025;-40
2021/08/27 02:54:21;;;;;;;4.95;1.27;;;13.30;99.90;;;;;;5028360;28;20026;-36
2021/08/27 02:56:52;;;;;;;3.42;1.13;;;13.30;99.90;;;;;;5027989;28;20025;-37
2021/08/27 02:59:20;;;;;;;3.42;1.13;;;13.30;99.90;;;;;;5029217;28;20025;-38
2021/08/27 03:01:51;;;;;;;3.75;1.23;;;13.20;99.90;;;;;;5028540;28;20039;-41
2021/08/27 03:04:39;;;;;;;4.38;1.35;;;13.30;99.90;;;;;;5027156;28;20021;-38
2021/08/27 03:07:08;;;;;;;3.90;1.58;;;13.30;99.90;;;;;;5020768;28;20048;-37
2021/08/27 03:09:55;;;;;;;6.60;1.80;;;13.30;99.90;;;;;;5027506;28;20049;-41
2021/08/27 03:12:36;;;;;;;1.67;0.90;;;13.40;99.90;;;;;;5028683;28;20018;-36
2021/08/27 03:15:07;;;;;;;6.20;1.45;;;13.40;99.90;;;;;;5028384;28;20060;-37
2021/08/27 03:17:38;;;;;;;3.55;1.40;;;13.50;99.90;;;;;;5028399;28;20025;-39
2021/08/27 03:20:17;;;;;;;4.82;1.13;;;13.50;99.90;;;;;;5028447;28;20056;-40
2021/08/27 03:22:48;;;;;;;4.05;1.10;;;13.60;99.90;;;;;;5031292;28;20393;-38
2021/08/27 03:25:16;;;;;;;4.63;1.10;;;13.60;99.90;;;;;;5032227;28;20477;-39
2021/08/27 03:27:47;;;;;;;3.83;1.10;;;13.60;99.90;;;;;;5031898;28;20029;-41
2021/08/27 03:30:16;;;;;;;5.20;1.20;;;13.60;99.90;;;;;;5032094;28;20025;-37
2021/08/27 03:32:56;;;;;;;4.28;1.52;;;13.60;99.90;;;;;;5031531;28;20505;-40
2021/08/27 03:35:26;;;;;;;4.07;1.10;;;13.70;99.90;;;;;;5032019;28;20053;-41
2021/08/27 03:37:53;;;;;;;2.22;1.15;;;13.70;99.90;;;;;;5031497;28;20022;-36
2021/08/27 03:40:20;;;;;;;4.95;1.67;;;13.70;99.90;;;;;;5032126;28;20083;-38
2021/08/27 03:42:46;;;;;;;4.20;1.20;;;13.80;99.90;;;;;;5020400;28;20060;-42
2021/08/27 03:45:15;;;;;;;6.30;1.27;;;13.80;99.90;;;;;;5031867;28;20041;-39
2021/08/27 03:47:43;;;;;;;5.00;1.20;;;13.80;99.90;;;;;;5031833;28;20021;-36
2021/08/27 03:50:12;;;;;;;3.20;1.10;;;13.90;99.90;;;;;;5030914;28;20031;-41
2021/08/27 03:52:41;;;;;;;8.57;1.55;;;13.90;99.90;;;;;;5029480;28;20480;-39
2021/08/27 03:55:09;;;;;;;3.05;0.82;;;13.90;99.90;;;;;;5030974;28;20040;-40
2021/08/27 03:57:36;;;;;;;3.47;1.08;;;13.90;99.90;;;;;;5030549;28;20053;-42
2021/08/27 04:00:03;;;;;;;3.65;1.10;;;13.90;99.90;;;;;;5030437;28;20109;-44
2021/08/27 04:02:29;;;;;;;4.60;1.42;;;13.90;99.90;;;;;;5030768;28;20051;-40
2021/08/27 04:05:10;;;;;;;4.82;1.20;;;13.90;99.90;;;;;;5031129;28;20443;-43
2021/08/27 04:07:35;;;;;;;3.25;1.00;;;13.90;99.90;;;;;;5031655;28;20376;-41
2021/08/27 04:10:01;;;;;;;2.88;1.20;;;13.90;99.90;;;;;;5030899;28;20026;-39
2021/08/27 04:12:26;;;;;;;5.53;1.17;;;13.90;99.90;;;;;;5030412;28;20323;-37
2021/08/27 04:14:52;;;;;;;5.93;1.35;;;13.80;99.90;;;;;;5030963;28;20060;-41
2021/08/27 04:17:17;;;;;;;3.65;1.27;;;13.80;99.90;;;;;;5031401;28;20037;-43
2021/08/27 04:19:45;;;;;;;2.30;0.98;;;13.80;99.90;;;;;;5030987;28;20124;-39
2021/08/27 04:22:14;;;;;;;3.83;1.20;;;13.70;99.90;;;;;;5031489;28;20018;-37
2021/08/27 04:24:39;;;;;;;4.75;1.05;;;13.70;99.90;;;;;;5031678;28;20049;-42
2021/08/27 04:27:08;;;;;;;1.85;1.00;;;13.70;99.90;;;;;;5030199;28;20624;-38
2021/08/27 04:29:33;;;;;;;6.63;1.35;;;13.70;99.90;;;;;;5029999;28;20025;-42
2021/08/27 04:31:59;;;;;;;2.42;1.05;;;13.70;99.90;;;;;;5029592;28;20032;-43
2021/08/27 04:34:24;;;;;;;5.43;1.10;;;13.60;99.90;;;;;;5029794;28;20035;-42
2021/08/27 04:36:50;;;;;;;3.60;1.23;;;13.60;99.90;;;;;;5028917;28;20018;-41
2021/08/27 04:39:15;;;;;;;10.23;2.08;;;13.60;99.90;;;;;;5029864;28;20048;-40
2021/08/27 04:41:41;;;;;;;4.47;1.60;;;13.60;99.90;;;;;;5030448;28;20041;-40
2021/08/27 04:44:09;;;;;;;2.58;1.10;;;13.60;99.90;;;;;;5030558;28;20037;-45
2021/08/27 04:46:35;;;;;;;6.50;1.45;;;13.60;99.90;;;;;;5030397;28;20030;-41
2021/08/27 04:49:03;;;;;;;3.85;1.08;;;13.60;99.90;;;;;;5029733;28;20021;-39
2021/08/27 04:51:29;;;;;;;3.00;0.95;;;13.70;99.90;;;;;;5030176;28;20472;-36
2021/08/27 04:53:54;;;;;;;7.15;1.60;;;13.70;99.90;;;;;;5030533;28;20028;-39
2021/08/27 04:56:21;;;;;;;3.40;1.17;;;13.80;99.90;;;;;;5029657;28;20029;-36
2021/08/27 04:58:47;;;;;;;3.70;1.48;;;13.80;99.90;;;;;;5028785;28;20021;-39
2021/08/27 05:01:12;;;;;;;2.35;1.08;;;13.90;99.90;;;;;;5029032;28;20120;-40
2021/08/27 05:03:38;;;;;;;4.90;1.30;;;13.90;99.90;;;;;;5029432;28;20030;-39
2021/08/27 05:06:03;;;;;;;4.57;1.10;;;14.00;99.90;;;;;;5029470;28;20472;-42
2021/08/27 05:08:32;;;;;;;4.32;1.50;;;14.00;99.90;;;;;;5029359;28;20017;-41
2021/08/27 05:10:57;;;;;;;2.60;1.27;;;14.10;99.90;;;;;;5029331;28;20022;-38
2021/08/27 05:13:23;;;;;;;2.78;1.30;;;14.10;99.90;;;;;;5030026;28;20032;-38
2021/08/27 05:15:49;;;;;;;2.80;0.90;;;14.20;99.90;;;;;;5028336;28;20068;-35
2021/08/27 05:18:14;;;;;;;3.22;1.02;;;14.20;99.90;;;;;;5029973;28;20091;-40
2021/08/27 05:20:40;;;;;;;3.70;1.13;;;14.20;99.90;;;;;;5029540;28;20495;-39
2021/08/27 05:23:05;;;;;;;3.53;0.90;;;14.20;99.90;;;;;;5029443;28;20109;-41
2021/08/27 05:25:31;;;;;;;1.88;0.90;;;14.20;99.90;;;;;;5029825;28;20025;-39
2021/08/27 05:27:57;;;;;;;2.67;1.08;;;14.30;99.90;;;;;;5029769;28;20103;-40
2021/08/27 05:30:22;;;;;;;4.28;1.23;;;14.30;99.90;;;;;;5028505;28;20099;-40
2021/08/27 05:32:49;;;;;;;2.95;1.05;;;14.20;99.90;;;;;;5029345;28;20049;-41
2021/08/27 05:35:15;;;;;;;4.35;1.33;;;14.30;99.90;;;;;;5028023;28;20037;-40
2021/08/27 05:37:42;;;;;;;4.30;1.25;;;14.30;99.90;;;;;;5025658;28;20040;-41
2021/08/27 05:40:11;;;;;;;2.47;1.30;;;14.30;99.90;;;;;;5029657;28;20200;-42
2021/08/27 05:42:41;;;;;;;3.42;1.23;;;14.30;99.90;;;;;;5025731;28;20017;-39
2021/08/27 05:45:09;;;;;;;3.00;0.90;;;14.40;99.90;;;;;;5028362;28;20033;-39
2021/08/27 05:47:39;;;;;;;2.45;1.10;;;14.40;99.90;;;;;;5027973;28;20432;-34
2021/08/27 05:50:06;;;;;;;3.60;1.15;;;14.40;99.90;;;;;;5028924;28;20343;-38
2021/08/27 05:52:33;;;;;;;2.38;1.05;;;14.40;99.90;;;;;;5028802;28;20021;-38
2021/08/27 05:55:00;;;;;;;6.35;1.05;;;14.50;99.90;;;;;;5024705;28;20013;-39
2021/08/27 05:57:28;;;;;;;3.15;1.17;;;14.50;99.90;;;;;;5028539;28;20021;-36
2021/08/27 05:59:54;;;;;;;4.35;1.42;;;14.60;99.90;;;;;;5036805;28;20032;-38
2021/08/27 06:02:20;;;;;;;2.28;1.02;;;14.70;99.90;;;;;;5028673;28;20022;-37
2021/08/27 06:04:47;;;;;;;4.90;1.30;;;14.80;99.90;;;;;;5028514;28;20475;-37
2021/08/27 06:07:13;;;;;;;4.43;1.05;;;14.90;99.90;;;;;;5029141;28;20033;-40
2021/08/27 06:09:39;;;;;;;4.13;1.40;;;14.90;99.90;;;;;;5028035;28;20025;-39
2021/08/27 06:12:05;;;;;;;6.35;1.20;;;14.90;99.90;;;;;;5026677;28;20025;-41
2021/08/27 06:14:30;;;;;;;4.05;1.48;;;15.00;99.90;;;;;;5027229;28;20021;-44
2021/08/27 06:16:56;;;;;;;5.35;1.50;;;15.00;99.90;;;;;;5026740;28;20363;-38
2021/08/27 06:19:22;;;;;;;4.82;1.30;;;15.10;99.90;;;;;;5027267;28;20100;-39
2021/08/27 06:21:47;;;;;;;4.35;1.05;;;15.10;99.90;;;;;;5027313;28;20043;-40
2021/08/27 06:24:19;;;;;;;3.25;1.25;;;15.20;99.90;;;;;;5033752;28;20025;-36
2021/08/27 06:26:45;;;;;;;7.97;1.30;;;15.20;99.90;;;;;;5033683;28;20477;-34
2021/08/27 06:29:11;;;;;;;4.63;1.50;;;15.30;99.90;;;;;;5029245;28;20037;-38
2021/08/27 06:31:38;;;;;;;3.95;1.20;;;15.30;99.90;;;;;;5029246;28;20465;-39
2021/08/27 06:34:10;;;;;;;4.10;1.52;;;15.30;99.90;;;;;;5028340;28;20056;-40
2021/08/27 06:36:41;;;;;;;4.73;1.50;;;15.40;99.90;;;;;;5028800;28;20021;-40
2021/08/27 06:39:06;;;;;;;5.60;1.35;;;15.40;99.90;;;;;;5028585;28;20465;-35
2021/08/27 06:41:32;;;;;;;3.10;1.27;;;15.50;99.90;;;;;;5028075;28;20203;-37
2021/08/27 06:43:57;;;;;;;3.83;1.33;;;15.50;99.90;;;;;;5027883;28;20022;-38
2021/08/27 06:46:25;;;;;;;3.10;1.08;;;15.50;99.90;;;;;;5028435;28;20014;-38
2021/08/27 06:48:51;;;;;;;3.22;1.08;;;15.50;99.90;;;;;;5028501;28;20071;-42
2021/08/27 06:51:17;;;;;;;2.35;1.00;;;15.60;99.90;;;;;;5028970;28;20036;-40
2021/08/27 06:53:43;;;;;;;4.55;1.48;;;15.60;99.90;;;;;;5025168;28;20030;-42
2021/08/27 06:56:09;;;;;;;2.83;1.50;;;15.70;99.90;;;;;;5024725;28;20032;-42
2021/08/27 06:58:34;;;;;;;3.80;1.25;;;15.70;99.90;;;;;;5031868;28;20384;-38
2021/08/27 07:01:01;;;;;;;2.25;1.00;;;15.80;99.90;;;;;;5031631;28;20411;-41
2021/08/27 07:03:26;;;;;;;3.25;1.30;;;15.90;99.90;;;;;;5032643;28;20029;-41
2021/08/27 07:05:53;;;;;;;3.50;1.25;;;15.90;99.90;;;;;;5031961;28;20030;-41
2021/08/27 07:08:19;;;;;;;3.38;1.15;;;16.00;99.90;;;;;;5032083;28;20053;-42
2021/08/27 07:10:44;;;;;;;4.18;1.30;;;16.00;99.90;;;;;;5033054;28;20084;-39
2021/08/27 07:13:11;;;;;;;5.78;1.08;;;16.10;99.90;;;;;;5032191;28;20013;-40
2021/08/27 07:15:39;;;;;;;1.88;0.95;;;16.20;99.90;;;;;;5030738;28;20049;-41
2021/08/27 07:18:05;;;;;;;4.15;1.17;;;16.30;99.90;;;;;;5031301;28;20052;-39
2021/08/27 07:20:31;;;;;;;3.58;1.38;;;16.30;99.90;;;;;;5017116;28;20041;-39
2021/08/27 07:22:57;;;;;;;4.57;1.63;;;16.40;99.90;;;;;;5040512;28;20021;-40
2021/08/27 07:25:23;;;;;;;5.07;1.17;;;16.40;99.90;;;;;;5031729;28;20052;-41
2021/08/27 07:27:49;;;;;;;5.22;1.20;;;16.50;99.90;;;;;;5033042;28;20044;-41
2021/08/27 07:30:16;;;;;;;4.85;1.50;;;16.50;99.90;;;;;;5040444;28;20021;-38
2021/08/27 07:32:42;;;;;;;5.38;1.50;;;16.50;99.90;;;;;;5045738;28;20447;-40
2021/08/27 07:35:08;;;;;;;8.95;1.50;;;16.60;99.90;;;;;;5040341;28;20034;-39
2021/08/27 07:37:45;;;;;;;2.75;1.10;;;16.70;99.90;;;;;;5035595;28;20073;-39
2021/08/27 07:40:16;;;;;;;3.80;1.27;;;16.80;99.90;;;;;;5040946;28;20174;-42
2021/08/27 07:42:42;;;;;;;4.50;1.40;;;16.90;99.90;;;;;;5050789;28;20032;-40
2021/08/27 07:45:10;;;;;;;3.53;1.20;;;16.90;99.90;;;;;;5031097;28;20037;-38
2021/08/27 07:47:43;;;;;;;4.68;1.33;;;17.00;99.90;;;;;;5031320;28;20532;-41
2021/08/27 07:50:09;;;;;;;;;;;17.10;99.90;;;;;;5034465;28;20059;-35
2021/08/27 07:52:36;;;;;;;5.05;1.30;;;17.20;99.90;;;;;;5032267;28;19912;-39
2021/08/27 07:55:05;;;;;;;4.43;1.45;;;17.20;99.90;;;;;;5031285;28;20057;-41
2021/08/27 07:57:30;;;;;;;5.45;1.30;;;17.20;99.90;;;;;;5031425;28;20029;-37
2021/08/27 07:59:56;;;;;;;4.03;1.42;;;17.30;99.90;;;;;;5030966;28;20458;-39
2021/08/27 08:02:22;;;;;;;6.25;1.67;;;17.30;99.90;;;;;;5032017;28;20392;-40
2021/08/27 08:04:47;;;;;;;5.43;1.38;;;17.30;99.90;;;;;;5030832;28;20018;-41
2021/08/27 08:07:13;;;;;;;4.68;1.30;;;17.30;99.90;;;;;;5031553;28;20025;-41
2021/08/27 08:09:39;;;;;;;2.55;1.20;;;17.30;99.90;;;;;;5031227;28;20378;-39
2021/08/27 08:12:05;;;;;;;5.70;1.45;;;17.30;99.90;;;;;;5034096;28;20108;-40
2021/08/27 08:14:30;;;;;;;3.90;1.52;;;17.30;99.90;;;;;;5031361;28;20017;-37
2021/08/27 08:16:59;;;;;;;5.13;2.17;;;17.30;99.90;;;;;;5035161;28;20942;-38
2021/08/27 08:19:31;;;;;;;5.57;1.60;;;17.30;99.90;;;;;;5047135;28;20053;-42
2021/08/27 08:22:03;;;;;;;6.32;1.50;;;17.40;99.90;;;;;;5029317;28;20087;-43
2021/08/27 08:24:28;;;;;;;4.03;1.53;;;17.30;99.90;;;;;;5030982;28;20036;-40
2021/08/27 08:27:00;;;;;;;3.70;1.40;;;17.30;99.90;;;;;;5029386;28;20285;-40
2021/08/27 08:29:25;;;;;;;6.57;1.40;;;17.20;99.90;;;;;;5030891;28;20025;-36
2021/08/27 08:31:52;;;;;;;1.92;1.27;;;17.20;99.90;;;;;;5037811;28;20366;-40
2021/08/27 08:34:18;;;;;;;4.13;1.23;;;17.20;99.90;;;;;;5045194;28;20036;-41
2021/08/27 08:36:44;;;;;;;7.10;1.67;;;17.10;99.90;;;;;;5031920;28;20030;-40
2021/08/27 08:39:09;;;;;;;4.72;1.55;;;17.20;99.90;;;;;;5029948;28;20025;-37
2021/08/27 08:41:38;;;;;;;7.15;1.50;;;17.20;99.90;;;;;;5029636;28;20037;-39
2021/08/27 08:44:04;;;;;;;8.50;1.50;;;17.30;99.90;;;;;;5030625;28;20548;-40
2021/08/27 08:46:30;;;;;;;6.97;1.83;;;17.40;99.90;;;;;;5029807;28;20124;-42
2021/08/27 08:48:58;;;;;;;9.15;1.80;;;17.60;99.90;;;;;;5029236;28;20033;-40
2021/08/27 08:51:24;;;;;;;6.07;1.60;;;17.80;99.90;;;;;;5030514;28;20088;-40
2021/08/27 08:53:51;;;;;;;6.15;1.73;;;18.00;99.90;;;;;;5029240;28;20049;-42
2021/08/27 08:56:20;;;;;;;4.40;1.45;;;18.10;99.90;;;;;;5030384;28;20025;-41
2021/08/27 08:58:46;;;;;;;4.05;1.40;;;18.20;99.90;;;;;;5029445;28;20025;-42
2021/08/27 09:01:17;;;;;;;4.82;1.33;;;18.30;99.90;;;;;;5029289;28;20537;-40
2021/08/27 09:03:43;;;;;;;1.85;1.20;;;18.30;99.90;;;;;;5030097;28;20113;-44
2021/08/27 09:06:09;;;;;;;6.80;1.70;;;18.20;99.90;;;;;;5029373;28;20477;-42
2021/08/27 09:08:40;;;;;;;4.85;1.75;;;18.20;99.90;;;;;;5029369;28;20021;-40
2021/08/27 09:11:17;;;;;;;5.40;1.60;;;18.10;99.90;;;;;;5030231;28;20374;-40
2021/08/27 09:13:44;;;;;;;4.95;1.60;;;18.00;99.90;;;;;;5039562;28;20151;-40
2021/08/27 09:16:10;;;;;;;7.65;2.20;;;17.90;99.90;;;;;;5029201;28;20099;-36
2021/08/27 09:18:47;;;;;;;5.60;1.80;;;17.90;99.90;;;;;;5033714;28;20056;-41
2021/08/27 09:21:46;;;;;;;5.47;1.60;;;18.00;99.90;;;;;;5038786;28;20139;-39
2021/08/27 09:24:21;;;;;;;3.80;1.73;;;18.10;99.90;;;;;;5030207;28;20060;-43
2021/08/27 09:26:59;;;;;;;3.90;1.63;;;18.10;99.90;;;;;;5036200;28;20013;-37
2021/08/27 09:29:38;;;;;;;4.40;1.70;;;18.30;99.90;;;;;;5031415;28;20040;-40
2021/08/27 09:32:18;;;;;;;5.93;1.83;;;18.50;99.90;;;;;;5028658;28;20091;-40
2021/08/27 09:34:44;;;;;;;9.52;2.00;;;18.70;99.90;;;;;;5029096;28;20048;-40
2021/08/27 09:37:10;;;;;;;4.00;1.27;;;18.70;99.90;;;;;;5028520;28;20025;-40
2021/08/27 09:39:36;;;;;;;5.28;1.63;;;18.80;99.90;;;;;;5028557;28;20033;-40
2021/08/27 09:42:05;;;;;;;5.20;1.75;;;18.90;99.90;;;;;;5028883;28;20034;-41
2021/08/27 09:44:30;;;;;;;3.85;1.15;;;18.90;99.90;;;;;;5028652;28;20018;-40
2021/08/27 09:47:05;;;;;;;8.18;1.63;;;18.90;99.90;;;;;;5028507;28;20158;-41
2021/08/27 09:49:36;;;;;;;5.25;1.45;;;18.90;99.90;;;;;;5029221;28;20025;-37
2021/08/27 09:52:15;;;;;;;4.80;1.67;;;18.90;99.90;;;;;;5028030;28;20021;-37
2021/08/27 09:54:46;;;;;;;5.13;1.50;;;18.90;99.90;;;;;;5028408;28;20025;-40
2021/08/27 09:57:12;;;;;;;4.03;1.42;;;18.90;99.90;;;;;;5028090;28;20029;-42
2021/08/27 09:59:44;;;;;;;4.13;1.63;;;19.10;99.50;;;;;;5028602;28;20025;-37
2021/08/27 10:02:11;;;;;;;5.13;2.00;;;19.20;98.70;;;;;;5028238;28;20037;-40
2021/08/27 10:04:50;;;;;;;7.32;1.98;;;19.20;99.00;;;;;;5027645;28;20109;-39
2021/08/27 10:07:28;;;;;;;2.88;1.30;;;19.10;98.50;;;;;;5028472;28;20090;-36
2021/08/27 10:09:57;;;;;;;3.75;1.50;;;19.10;98.60;;;;;;5032758;28;20033;-39
2021/08/27 10:12:27;;;;;;;3.60;1.63;;;19.20;98.80;;;;;;5036169;28;20052;-39
2021/08/27 10:14:53;;;;;;;4.97;1.30;;;19.30;99.00;;;;;;5029482;28;20084;-38
2021/08/27 10:17:19;;;;;;;6.32;1.85;;;19.50;98.80;;;;;;5041088;28;20025;-40
2021/08/27 10:19:45;;;;;;;8.85;2.00;;;19.60;99.40;;;;;;5029908;28;20013;-44
2021/08/27 10:22:11;;;;;;;5.88;1.83;;;19.00;99.90;;;;;;5034673;28;20029;-45
2021/08/27 10:24:44;;;;;;;3.33;1.50;;;18.30;99.90;;;;;;5037396;28;20025;-43
2021/08/27 10:27:13;;;;;;;5.18;1.70;;;17.70;99.90;;;;;;5041710;28;20045;-43
2021/08/27 10:29:59;;;;;;;4.13;1.73;;;17.30;99.90;;;;;;5034884;28;20085;-44
2021/08/27 10:32:40;;;;;;;6.45;1.63;;;17.00;99.90;;;;;;5032284;28;20417;-46
2021/08/27 10:35:10;;;;;;;6.65;1.60;;;16.70;99.90;;;;;;5032651;28;20536;-43
2021/08/27 10:37:45;;;;;;;5.38;1.77;;;16.50;99.90;;;;;;5033595;28;20536;-43
2021/08/27 10:40:26;;;;;;;4.93;1.75;;;16.40;99.90;;;;;;5032712;28;20018;-42
2021/08/27 10:43:03;;;;;;;2.58;1.45;;;16.30;99.90;;;;;;5032635;28;20036;-42
2021/08/27 10:45:47;;;;;;;3.63;1.20;;;16.20;99.90;;;;;;5033042;28;20029;-41
2021/08/27 10:48:18;;;;;;;2.15;1.00;;;16.30;99.90;;;;;;5040133;28;20146;-41
2021/08/27 10:50:47;;;;;;;4.88;1.45;;;16.40;99.90;;;;;;5041033;28;20040;-45
2021/08/27 10:53:30;;;;;;;3.92;1.77;;;16.50;99.90;;;;;;5041308;28;20431;-44
2021/08/27 10:56:07;;;;;;;3.35;1.13;;;16.70;99.90;;;;;;5036120;28;20029;-46
2021/08/27 10:58:52;;;;;;;3.75;1.20;;;16.80;99.90;;;;;;5045109;28;20082;-42
2021/08/27 11:01:35;;;;;;;4.03;1.20;;;16.90;99.90;;;;;;5033947;28;20029;-44
2021/08/27 11:04:09;;;;;;;7.10;1.73;;;16.80;99.90;;;;;;5012682;28;20026;-43
2021/08/27 11:06:53;;;;;;;4.95;1.30;;;16.80;99.90;;;;;;5029523;28;20025;-45
2021/08/27 11:09:33;;;;;;;3.28;1.30;;;16.70;99.90;;;;;;5032375;28;20030;-44
2021/08/27 11:12:09;;;;;;;3.75;1.08;;;16.70;99.90;;;;;;5032131;28;20109;-44
2021/08/27 11:14:36;;;;;;;7.88;1.15;;;16.80;99.90;;;;;;5032072;28;20033;-42
2021/08/27 11:17:05;;;;;;;3.05;1.17;;;17.00;99.90;;;;;;5031824;28;20034;-43
2021/08/27 11:19:38;;;;;;;2.30;1.10;;;17.20;99.90;;;;;;5032581;28;20026;-41
2021/08/27 11:22:09;;;;;;;;;;;17.30;99.90;;;;;;5031955;28;20216;-42
2021/08/27 11:24:35;;;;;;;4.15;1.20;;;17.30;99.90;;;;;;5032272;28;20374;-40
2021/08/27 11:27:02;;;;;;;4.15;1.13;;;17.30;99.90;;;;;;5031926;28;20028;-41
2021/08/27 11:29:33;;;;;;;7.65;1.80;;;17.20;99.90;;;;;;5046473;28;20021;-43
2021/08/27 11:32:30;;;;;;;3.95;1.42;;;17.10;99.90;;;;;;5037657;28;20411;-43
2021/08/27 11:35:05;;;;;;;5.07;1.52;;;17.10;99.90;;;;;;5034565;28;20052;-45
2021/08/27 11:37:34;;;;;;;7.18;1.55;;;17.20;99.90;;;;;;5035139;28;20036;-45
2021/08/27 11:40:00;;;;;;;7.63;1.60;;;17.30;99.90;;;;;;5031241;28;20032;-43
2021/08/27 11:42:26;;;;;;;4.80;1.45;;;17.40;99.90;;;;;;5030801;28;20542;-42
2021/08/27 11:45:11;;;;;;;5.32;1.40;;;17.50;99.90;;;;;;5031418;28;20469;-44
2021/08/27 11:47:44;;;;;;;4.10;1.45;;;17.60;99.90;;;;;;5030367;28;20032;-44
2021/08/27 11:50:22;;;;;;;6.32;1.90;;;17.60;99.90;;;;;;5039899;28;20025;-39
2021/08/27 11:52:49;;;;;;;5.28;1.70;;;17.80;99.90;;;;;;5036030;28;20041;-40
2021/08/27 11:55:16;;;;;;;4.88;1.50;;;17.90;99.90;;;;;;5031366;28;20097;-42
2021/08/27 11:57:53;;;;;;;5.97;1.80;;;17.90;99.90;;;;;;5030864;28;20022;-42
2021/08/27 12:00:36;;;;;;;9.15;2.08;;;18.00;99.90;;;;;;5030978;28;20034;-43
2021/08/27 12:03:03;;;;;;;7.18;1.92;;;18.00;99.90;;;;;;5030735;28;20021;-44
2021/08/27 12:05:29;;;;;;;6.35;1.70;;;18.00;99.90;;;;;;5030429;28;20025;-41
2021/08/27 12:07:57;;;;;;;6.07;1.85;;;18.00;99.90;;;;;;5030802;28;20024;-45
2021/08/27 12:10:25;;;;;;;6.55;1.90;;;18.10;99.90;;;;;;5028340;28;20017;-40
2021/08/27 12:12:52;;;;;;;8.15;2.30;;;18.20;99.90;;;;;;5029900;28;20112;-42
2021/08/27 12:15:30;;;;;;;12.73;2.85;;;18.30;99.90;;;;;;5030322;28;20120;-44
2021/08/27 12:17:59;;;;;;;7.82;2.17;;;18.30;99.90;;;;;;5030003;28;20387;-44
2021/08/27 12:20:33;;;;;;;6.65;2.00;;;18.30;99.90;;;;;;5031373;28;20044;-44
2021/08/27 12:23:04;;;;;;;7.18;2.17;;;18.40;99.90;;;;;;5030943;28;20017;-45
2021/08/27 12:25:37;;;;;;;4.78;1.63;;;18.40;99.90;;;;;;5031039;28;20401;-46
2021/08/27 12:28:03;;;;;;;8.82;1.70;;;18.40;99.90;;;;;;5030784;28;20449;-42
2021/08/27 12:30:28;;;;;;;6.40;2.15;;;18.50;99.90;;;;;;5031462;28;20045;-43
2021/08/27 12:32:56;;;;;;;6.07;1.88;;;18.60;99.90;;;;;;5031512;28;20373;-44
2021/08/27 12:35:32;;;;;;;7.05;1.80;;;18.70;99.90;;;;;;5030870;28;20045;-43
2021/08/27 12:37:58;;;;;;;6.20;1.80;;;18.80;99.90;;;;;;5030359;28;20404;-44
2021/08/27 12:40:26;;;;;;;9.60;2.38;;;18.90;99.90;;;;;;5031047;28;20029;-43
2021/08/27 12:43:07;;;;;;;8.02;2.30;;;18.90;99.90;;;;;;5029707;28;20014;-44
2021/08/27 12:45:49;;;;;;;7.30;2.10;;;18.90;99.90;;;;;;5027962;28;20128;-40
2021/08/27 12:48:18;;;;;;;5.80;1.77;;;18.80;99.90;;;;;;5033146;28;20037;-45
2021/08/27 12:50:53;;;;;;;5.60;2.05;;;18.80;99.90;;;;;;5040408;28;20017;-40
2021/08/27 12:53:34;;;;;;;5.90;1.95;;;18.80;99.90;;;;;;5036491;28;20048;-42
2021/08/27 12:56:12;;;;;;;8.25;1.95;;;18.80;99.90;;;;;;5036625;28;20021;-43
2021/08/27 12:58:40;;;;;;;4.88;2.00;;;18.80;99.90;;;;;;5037364;28;20033;-44
2021/08/27 13:01:16;;;;;;;6.15;1.90;;;19.10;99.90;;;;;;5039307;28;20075;-43